sensor_id;sensor_type;location;lat;lon;timestamp;pressure;altitude;pressure_sealevel;temperature
49154;BMP280;49455;52.252;9.124;2023-04-25T00:00:00;98714.38;;;6.67
49154;BMP280;49455;52.252;9.124;2023-04-25T00:05:01;98707.31;;;6.60
49154;BMP280;49455;52.252;9.124;2023-04-25T00:10:03;98708.09;;;6.58
49154;BMP280;49455;52.252;9.124;2023-04-25T00:15:04;98706.16;;;6.49
49154;BMP280;49455;52.252;9.124;2023-04-25T00:20:05;98710.50;;;6.52
49154;BMP280;49455;52.252;9.124;2023-04-25T00:25:06;98704.28;;;6.42
49154;BMP280;49455;52.252;9.124;2023-04-25T00:30:07;98708.56;;;6.43
49154;BMP280;49455;52.252;9.124;2023-04-25T00:35:08;98696.66;;;6.45
49154;BMP280;49455;52.252;9.124;2023-04-25T00:40:09;98701.94;;;6.51
49154;BMP280;49455;52.252;9.124;2023-04-25T00:45:12;98698.38;;;6.46
49154;BMP280;49455;52.252;9.124;2023-04-25T00:50:13;98701.81;;;6.47
49154;BMP280;49455;52.252;9.124;2023-04-25T00:55:13;98698.31;;;6.43
49154;BMP280;49455;52.252;9.124;2023-04-25T01:00:14;98699.06;;;6.39
49154;BMP280;49455;52.252;9.124;2023-04-25T01:05:15;98688.59;;;6.33
49154;BMP280;49455;52.252;9.124;2023-04-25T01:10:15;98695.59;;;6.37
49154;BMP280;49455;52.252;9.124;2023-04-25T01:15:15;98692.94;;;6.34
49154;BMP280;49455;52.252;9.124;2023-04-25T01:20:16;98703.13;;;6.32
49154;BMP280;49455;52.252;9.124;2023-04-25T01:25:18;98696.22;;;6.31
49154;BMP280;49455;52.252;9.124;2023-04-25T01:30:19;98701.09;;;6.22
49154;BMP280;49455;52.252;9.124;2023-04-25T01:35:20;98703.66;;;6.20
49154;BMP280;49455;52.252;9.124;2023-04-25T01:40:21;98708.81;;;6.22
49154;BMP280;49455;52.252;9.124;2023-04-25T01:45:22;98708.63;;;6.16
49154;BMP280;49455;52.252;9.124;2023-04-25T01:50:22;98716.28;;;6.14
49154;BMP280;49455;52.252;9.124;2023-04-25T01:55:23;98721.28;;;6.10
49154;BMP280;49455;52.252;9.124;2023-04-25T02:00:32;98741.88;;;6.13
49154;BMP280;49455;52.252;9.124;2023-04-25T02:05:36;98761.31;;;6.05
49154;BMP280;49455;52.252;9.124;2023-04-25T02:10:38;98769.09;;;5.80
49154;BMP280;49455;52.252;9.124;2023-04-25T02:15:48;98764.22;;;5.63
49154;BMP280;49455;52.252;9.124;2023-04-25T02:20:50;98765.44;;;5.74
49154;BMP280;49455;52.252;9.124;2023-04-25T02:25:51;98771.50;;;5.76
49154;BMP280;49455;52.252;9.124;2023-04-25T02:30:52;98770.00;;;5.82
49154;BMP280;49455;52.252;9.124;2023-04-25T02:35:52;98770.91;;;5.84
49154;BMP280;49455;52.252;9.124;2023-04-25T02:40:56;98775.06;;;5.81
49154;BMP280;49455;52.252;9.124;2023-04-25T02:45:56;98779.16;;;5.74
49154;BMP280;49455;52.252;9.124;2023-04-25T02:50:56;98774.03;;;5.74
49154;BMP280;49455;52.252;9.124;2023-04-25T02:55:57;98777.56;;;5.79
49154;BMP280;49455;52.252;9.124;2023-04-25T03:00:57;98789.59;;;5.80
49154;BMP280;49455;52.252;9.124;2023-04-25T03:05:58;98787.94;;;5.82
49154;BMP280;49455;52.252;9.124;2023-04-25T03:11:03;98784.66;;;5.86
49154;BMP280;49455;52.252;9.124;2023-04-25T03:16:04;98789.09;;;5.92
49154;BMP280;49455;52.252;9.124;2023-04-25T03:21:04;98791.59;;;5.90
49154;BMP280;49455;52.252;9.124;2023-04-25T03:26:05;98791.81;;;5.96
49154;BMP280;49455;52.252;9.124;2023-04-25T03:31:05;98792.59;;;5.95
49154;BMP280;49455;52.252;9.124;2023-04-25T03:36:06;98798.47;;;5.91
49154;BMP280;49455;52.252;9.124;2023-04-25T03:41:07;98800.88;;;5.87
49154;BMP280;49455;52.252;9.124;2023-04-25T03:46:18;98807.63;;;5.83
49154;BMP280;49455;52.252;9.124;2023-04-25T03:51:19;98810.94;;;5.81
49154;BMP280;49455;52.252;9.124;2023-04-25T03:56:20;98817.41;;;5.70
49154;BMP280;49455;52.252;9.124;2023-04-25T04:01:24;98819.91;;;5.69
49154;BMP280;49455;52.252;9.124;2023-04-25T04:06:24;98825.84;;;5.68
49154;BMP280;49455;52.252;9.124;2023-04-25T04:11:31;98838.00;;;5.72
49154;BMP280;49455;52.252;9.124;2023-04-25T04:16:32;98839.72;;;5.72
49154;BMP280;49455;52.252;9.124;2023-04-25T04:21:34;98850.00;;;5.74
49154;BMP280;49455;52.252;9.124;2023-04-25T04:26:35;98855.94;;;5.72
49154;BMP280;49455;52.252;9.124;2023-04-25T04:31:54;98853.19;;;5.67
49154;BMP280;49455;52.252;9.124;2023-04-25T04:36:55;98854.88;;;5.67
49154;BMP280;49455;52.252;9.124;2023-04-25T04:41:55;98866.84;;;5.68
49154;BMP280;49455;52.252;9.124;2023-04-25T04:47:14;98868.56;;;5.67
49154;BMP280;49455;52.252;9.124;2023-04-25T04:52:33;98872.97;;;5.71
49154;BMP280;49455;52.252;9.124;2023-04-25T04:57:59;98884.69;;;5.65
49154;BMP280;49455;52.252;9.124;2023-04-25T05:03:32;98889.72;;;5.62
49154;BMP280;49455;52.252;9.124;2023-04-25T05:08:36;98901.50;;;5.57
49154;BMP280;49455;52.252;9.124;2023-04-25T05:13:51;98905.19;;;5.65
49154;BMP280;49455;52.252;9.124;2023-04-25T05:19:21;98908.34;;;5.58
49154;BMP280;49455;52.252;9.124;2023-04-25T05:24:35;98918.06;;;5.66
49154;BMP280;49455;52.252;9.124;2023-04-25T05:29:47;98919.53;;;5.83
49154;BMP280;49455;52.252;9.124;2023-04-25T05:35:00;98921.16;;;5.81
49154;BMP280;49455;52.252;9.124;2023-04-25T05:40:06;98938.63;;;5.92
49154;BMP280;49455;52.252;9.124;2023-04-25T05:45:25;98931.88;;;5.94
49154;BMP280;49455;52.252;9.124;2023-04-25T05:50:40;98939.16;;;6.07
49154;BMP280;49455;52.252;9.124;2023-04-25T05:56:11;98938.56;;;6.15
49154;BMP280;49455;52.252;9.124;2023-04-25T06:01:12;98956.53;;;6.17
49154;BMP280;49455;52.252;9.124;2023-04-25T06:06:12;98962.47;;;6.40
49154;BMP280;49455;52.252;9.124;2023-04-25T06:11:13;98963.41;;;6.42
49154;BMP280;49455;52.252;9.124;2023-04-25T06:16:14;98957.09;;;6.61
49154;BMP280;49455;52.252;9.124;2023-04-25T06:21:15;98957.34;;;6.68
49154;BMP280;49455;52.252;9.124;2023-04-25T06:26:15;98960.56;;;6.61
49154;BMP280;49455;52.252;9.124;2023-04-25T06:31:18;98968.03;;;6.54
49154;BMP280;49455;52.252;9.124;2023-04-25T06:36:20;98977.94;;;6.43
49154;BMP280;49455;52.252;9.124;2023-04-25T06:41:23;98983.34;;;6.51
49154;BMP280;49455;52.252;9.124;2023-04-25T06:46:24;98990.44;;;6.59
49154;BMP280;49455;52.252;9.124;2023-04-25T06:51:24;98982.47;;;6.78
49154;BMP280;49455;52.252;9.124;2023-04-25T06:56:28;98987.34;;;6.69
49154;BMP280;49455;52.252;9.124;2023-04-25T07:01:37;98994.56;;;6.82
49154;BMP280;49455;52.252;9.124;2023-04-25T07:06:43;98991.41;;;7.18
49154;BMP280;49455;52.252;9.124;2023-04-25T07:11:45;99001.59;;;6.87
49154;BMP280;49455;52.252;9.124;2023-04-25T07:16:45;98995.66;;;6.88
49154;BMP280;49455;52.252;9.124;2023-04-25T07:21:46;99010.97;;;7.14
49154;BMP280;49455;52.252;9.124;2023-04-25T07:26:46;99003.66;;;7.26
49154;BMP280;49455;52.252;9.124;2023-04-25T07:32:01;99005.78;;;7.40
49154;BMP280;49455;52.252;9.124;2023-04-25T07:37:01;99008.19;;;7.36
49154;BMP280;49455;52.252;9.124;2023-04-25T07:42:09;99014.50;;;7.47
49154;BMP280;49455;52.252;9.124;2023-04-25T07:47:13;99025.06;;;7.55
49154;BMP280;49455;52.252;9.124;2023-04-25T07:52:15;99019.56;;;7.73
49154;BMP280;49455;52.252;9.124;2023-04-25T07:57:21;99035.16;;;7.79
49154;BMP280;49455;52.252;9.124;2023-04-25T08:02:23;99034.63;;;7.61
49154;BMP280;49455;52.252;9.124;2023-04-25T08:07:24;99038.91;;;7.60
49154;BMP280;49455;52.252;9.124;2023-04-25T08:12:28;99047.69;;;7.67
49154;BMP280;49455;52.252;9.124;2023-04-25T08:17:30;99040.19;;;8.06
49154;BMP280;49455;52.252;9.124;2023-04-25T08:22:31;99046.56;;;8.50
49154;BMP280;49455;52.252;9.124;2023-04-25T08:27:47;99051.66;;;8.15
49154;BMP280;49455;52.252;9.124;2023-04-25T08:32:49;99060.66;;;8.02
49154;BMP280;49455;52.252;9.124;2023-04-25T08:38:03;99068.25;;;7.67
49154;BMP280;49455;52.252;9.124;2023-04-25T08:43:04;99068.88;;;7.89
49154;BMP280;49455;52.252;9.124;2023-04-25T08:48:07;99066.63;;;8.01
49154;BMP280;49455;52.252;9.124;2023-04-25T08:53:12;99084.88;;;7.79
49154;BMP280;49455;52.252;9.124;2023-04-25T08:58:14;99090.59;;;7.69
49154;BMP280;49455;52.252;9.124;2023-04-25T09:03:15;99108.13;;;7.54
49154;BMP280;49455;52.252;9.124;2023-04-25T09:08:16;99113.28;;;7.54
49154;BMP280;49455;52.252;9.124;2023-04-25T09:13:25;99119.09;;;7.48
49154;BMP280;49455;52.252;9.124;2023-04-25T09:18:43;99129.53;;;7.53
49154;BMP280;49455;52.252;9.124;2023-04-25T09:23:46;99127.50;;;7.71
49154;BMP280;49455;52.252;9.124;2023-04-25T09:28:47;99120.91;;;8.10
49154;BMP280;49455;52.252;9.124;2023-04-25T09:33:49;99133.88;;;8.43
49154;BMP280;49455;52.252;9.124;2023-04-25T09:38:49;99131.47;;;8.49
49154;BMP280;49455;52.252;9.124;2023-04-25T09:43:58;99141.38;;;8.34
49154;BMP280;49455;52.252;9.124;2023-04-25T09:49:07;99151.38;;;8.25
49154;BMP280;49455;52.252;9.124;2023-04-25T09:54:14;99158.94;;;8.18
49154;BMP280;49455;52.252;9.124;2023-04-25T09:59:22;99142.59;;;8.48
49154;BMP280;49455;52.252;9.124;2023-04-25T10:04:25;99148.69;;;8.51
49154;BMP280;49455;52.252;9.124;2023-04-25T10:09:32;99159.16;;;8.57
49154;BMP280;49455;52.252;9.124;2023-04-25T10:14:33;99156.94;;;9.04
49154;BMP280;49455;52.252;9.124;2023-04-25T10:19:34;99158.69;;;9.05
49154;BMP280;49455;52.252;9.124;2023-04-25T10:24:36;99166.38;;;9.38
49154;BMP280;49455;52.252;9.124;2023-04-25T10:29:38;99165.13;;;9.95
49154;BMP280;49455;52.252;9.124;2023-04-25T10:34:43;99164.94;;;10.28
49154;BMP280;49455;52.252;9.124;2023-04-25T10:39:44;99159.16;;;10.39
49154;BMP280;49455;52.252;9.124;2023-04-25T10:45:01;99162.84;;;9.71
49154;BMP280;49455;52.252;9.124;2023-04-25T10:50:08;99162.19;;;10.19
49154;BMP280;49455;52.252;9.124;2023-04-25T10:55:09;99160.41;;;10.60
49154;BMP280;49455;52.252;9.124;2023-04-25T11:05:34;99167.97;;;9.34
49154;BMP280;49455;52.252;9.124;2023-04-25T11:10:34;99184.81;;;9.20
49154;BMP280;49455;52.252;9.124;2023-04-25T11:15:35;99201.78;;;9.12
49154;BMP280;49455;52.252;9.124;2023-04-25T11:20:35;99186.31;;;9.12
49154;BMP280;49455;52.252;9.124;2023-04-25T11:25:36;99201.88;;;9.15
49154;BMP280;49455;52.252;9.124;2023-04-25T11:30:36;99194.97;;;8.80
49154;BMP280;49455;52.252;9.124;2023-04-25T11:35:40;99199.88;;;8.72
49154;BMP280;49455;52.252;9.124;2023-04-25T11:40:40;99201.00;;;8.82
49154;BMP280;49455;52.252;9.124;2023-04-25T11:45:41;99205.38;;;9.17
49154;BMP280;49455;52.252;9.124;2023-04-25T11:50:41;99207.75;;;9.44
49154;BMP280;49455;52.252;9.124;2023-04-25T11:55:42;99209.47;;;10.17
49154;BMP280;49455;52.252;9.124;2023-04-25T12:00:42;99197.88;;;10.39
49154;BMP280;49455;52.252;9.124;2023-04-25T12:05:44;99209.31;;;10.95
49154;BMP280;49455;52.252;9.124;2023-04-25T12:10:45;99207.50;;;10.90
49154;BMP280;49455;52.252;9.124;2023-04-25T12:15:46;99208.28;;;11.34
49154;BMP280;49455;52.252;9.124;2023-04-25T12:20:46;99209.56;;;11.58
49154;BMP280;49455;52.252;9.124;2023-04-25T12:25:47;99201.16;;;11.71
49154;BMP280;49455;52.252;9.124;2023-04-25T12:31:04;99212.63;;;11.37
49154;BMP280;49455;52.252;9.124;2023-04-25T12:36:05;99207.78;;;11.54
49154;BMP280;49455;52.252;9.124;2023-04-25T12:41:07;99200.41;;;11.28
49154;BMP280;49455;52.252;9.124;2023-04-25T12:46:07;99206.03;;;11.04
49154;BMP280;49455;52.252;9.124;2023-04-25T12:51:08;99208.03;;;11.71
49154;BMP280;49455;52.252;9.124;2023-04-25T12:56:08;99216.47;;;12.16
49154;BMP280;49455;52.252;9.124;2023-04-25T13:01:09;99216.28;;;12.03
49154;BMP280;49455;52.252;9.124;2023-04-25T13:06:09;99216.88;;;11.86
49154;BMP280;49455;52.252;9.124;2023-04-25T13:11:10;99199.50;;;12.38
49154;BMP280;49455;52.252;9.124;2023-04-25T13:16:11;99203.47;;;12.81
49154;BMP280;49455;52.252;9.124;2023-04-25T13:21:11;99208.34;;;12.54
49154;BMP280;49455;52.252;9.124;2023-04-25T13:26:12;99199.91;;;12.73
49154;BMP280;49455;52.252;9.124;2023-04-25T13:31:12;99204.16;;;12.68
49154;BMP280;49455;52.252;9.124;2023-04-25T13:36:13;99207.69;;;12.07
49154;BMP280;49455;52.252;9.124;2023-04-25T13:41:13;99199.81;;;12.67
49154;BMP280;49455;52.252;9.124;2023-04-25T13:46:14;99212.19;;;11.60
49154;BMP280;49455;52.252;9.124;2023-04-25T13:51:15;99228.66;;;10.71
49154;BMP280;49455;52.252;9.124;2023-04-25T13:56:16;99264.69;;;9.52
49154;BMP280;49455;52.252;9.124;2023-04-25T14:01:16;99266.78;;;9.33
49154;BMP280;49455;52.252;9.124;2023-04-25T14:06:16;99266.06;;;9.05
49154;BMP280;49455;52.252;9.124;2023-04-25T14:11:17;99268.41;;;8.97
49154;BMP280;49455;52.252;9.124;2023-04-25T14:16:17;99264.34;;;9.06
49154;BMP280;49455;52.252;9.124;2023-04-25T14:21:18;99267.69;;;9.35
49154;BMP280;49455;52.252;9.124;2023-04-25T14:26:18;99271.34;;;10.53
49154;BMP280;49455;52.252;9.124;2023-04-25T14:31:19;99262.34;;;11.68
49154;BMP280;49455;52.252;9.124;2023-04-25T14:36:19;99263.31;;;11.74
49154;BMP280;49455;52.252;9.124;2023-04-25T14:41:20;99258.16;;;11.76
49154;BMP280;49455;52.252;9.124;2023-04-25T14:46:20;99271.72;;;11.15
49154;BMP280;49455;52.252;9.124;2023-04-25T14:51:21;99270.22;;;10.82
49154;BMP280;49455;52.252;9.124;2023-04-25T14:56:21;99273.34;;;10.64
49154;BMP280;49455;52.252;9.124;2023-04-25T15:01:22;99268.81;;;10.55
49154;BMP280;49455;52.252;9.124;2023-04-25T15:06:22;99283.28;;;10.07
49154;BMP280;49455;52.252;9.124;2023-04-25T15:11:23;99279.50;;;9.60
49154;BMP280;49455;52.252;9.124;2023-04-25T15:16:23;99287.59;;;9.40
49154;BMP280;49455;52.252;9.124;2023-04-25T15:21:24;99314.50;;;8.58
49154;BMP280;49455;52.252;9.124;2023-04-25T15:26:24;99340.47;;;7.84
49154;BMP280;49455;52.252;9.124;2023-04-25T15:31:25;99339.69;;;7.60
49154;BMP280;49455;52.252;9.124;2023-04-25T15:36:25;99338.75;;;7.83
49154;BMP280;49455;52.252;9.124;2023-04-25T15:41:25;99330.56;;;7.96
49154;BMP280;49455;52.252;9.124;2023-04-25T15:46:26;99330.66;;;8.25
49154;BMP280;49455;52.252;9.124;2023-04-25T15:51:29;99339.69;;;8.68
49154;BMP280;49455;52.252;9.124;2023-04-25T15:56:29;99335.97;;;8.87
49154;BMP280;49455;52.252;9.124;2023-04-25T16:01:30;99331.91;;;8.95
49154;BMP280;49455;52.252;9.124;2023-04-25T16:06:30;99326.69;;;9.56
49154;BMP280;49455;52.252;9.124;2023-04-25T16:11:31;99326.84;;;9.62
49154;BMP280;49455;52.252;9.124;2023-04-25T16:16:31;99324.69;;;9.78
49154;BMP280;49455;52.252;9.124;2023-04-25T16:21:31;99338.03;;;9.31
49154;BMP280;49455;52.252;9.124;2023-04-25T16:26:32;99347.38;;;8.95
49154;BMP280;49455;52.252;9.124;2023-04-25T16:31:33;99362.94;;;8.42
49154;BMP280;49455;52.252;9.124;2023-04-25T16:36:34;99391.19;;;7.63
49154;BMP280;49455;52.252;9.124;2023-04-25T16:41:34;99373.28;;;7.17
49154;BMP280;49455;52.252;9.124;2023-04-25T16:46:35;99367.88;;;7.33
49154;BMP280;49455;52.252;9.124;2023-04-25T16:51:35;99362.72;;;7.57
49154;BMP280;49455;52.252;9.124;2023-04-25T16:56:35;99362.00;;;7.61
49154;BMP280;49455;52.252;9.124;2023-04-25T17:01:36;99370.31;;;7.79
49154;BMP280;49455;52.252;9.124;2023-04-25T17:06:36;99363.78;;;7.88
49154;BMP280;49455;52.252;9.124;2023-04-25T17:11:37;99367.53;;;7.73
49154;BMP280;49455;52.252;9.124;2023-04-25T17:16:37;99374.31;;;7.71
49154;BMP280;49455;52.252;9.124;2023-04-25T17:21:38;99365.72;;;7.69
49154;BMP280;49455;52.252;9.124;2023-04-25T17:26:38;99385.84;;;7.57
49154;BMP280;49455;52.252;9.124;2023-04-25T17:31:39;99391.00;;;7.57
49154;BMP280;49455;52.252;9.124;2023-04-25T17:36:39;99387.28;;;7.50
49154;BMP280;49455;52.252;9.124;2023-04-25T17:41:39;99392.31;;;7.45
49154;BMP280;49455;52.252;9.124;2023-04-25T17:46:40;99396.97;;;7.32
49154;BMP280;49455;52.252;9.124;2023-04-25T17:51:40;99399.75;;;7.38
49154;BMP280;49455;52.252;9.124;2023-04-25T17:56:41;99404.78;;;7.35
49154;BMP280;49455;52.252;9.124;2023-04-25T18:01:41;99402.09;;;7.32
49154;BMP280;49455;52.252;9.124;2023-04-25T18:06:42;99410.75;;;7.11
49154;BMP280;49455;52.252;9.124;2023-04-25T18:11:43;99413.03;;;7.03
49154;BMP280;49455;52.252;9.124;2023-04-25T18:16:45;99412.66;;;7.16
49154;BMP280;49455;52.252;9.124;2023-04-25T18:21:47;99416.66;;;7.08
49154;BMP280;49455;52.252;9.124;2023-04-25T18:26:48;99419.88;;;7.03
49154;BMP280;49455;52.252;9.124;2023-04-25T18:31:48;99437.00;;;7.04
49154;BMP280;49455;52.252;9.124;2023-04-25T18:36:49;99441.19;;;7.00
49154;BMP280;49455;52.252;9.124;2023-04-25T18:41:49;99448.25;;;6.84
49154;BMP280;49455;52.252;9.124;2023-04-25T18:46:50;99455.03;;;6.82
49154;BMP280;49455;52.252;9.124;2023-04-25T18:51:50;99461.28;;;6.67
49154;BMP280;49455;52.252;9.124;2023-04-25T18:56:51;99479.94;;;6.63
49154;BMP280;49455;52.252;9.124;2023-04-25T19:01:52;99474.56;;;6.57
49154;BMP280;49455;52.252;9.124;2023-04-25T19:06:52;99495.00;;;6.54
49154;BMP280;49455;52.252;9.124;2023-04-25T19:11:53;99488.56;;;6.43
49154;BMP280;49455;52.252;9.124;2023-04-25T19:16:53;99501.84;;;6.33
49154;BMP280;49455;52.252;9.124;2023-04-25T19:21:54;99508.94;;;6.19
49154;BMP280;49455;52.252;9.124;2023-04-25T19:26:54;99517.16;;;6.12
49154;BMP280;49455;52.252;9.124;2023-04-25T19:31:54;99522.31;;;6.12
49154;BMP280;49455;52.252;9.124;2023-04-25T19:36:55;99531.19;;;6.00
49154;BMP280;49455;52.252;9.124;2023-04-25T19:41:55;99530.06;;;5.93
49154;BMP280;49455;52.252;9.124;2023-04-25T19:46:56;99526.44;;;5.88
49154;BMP280;49455;52.252;9.124;2023-04-25T19:51:56;99533.88;;;5.82
49154;BMP280;49455;52.252;9.124;2023-04-25T19:56:57;99532.34;;;5.69
49154;BMP280;49455;52.252;9.124;2023-04-25T20:01:58;99541.47;;;5.62
49154;BMP280;49455;52.252;9.124;2023-04-25T20:06:59;99548.69;;;5.52
49154;BMP280;49455;52.252;9.124;2023-04-25T20:12:00;99550.75;;;5.41
49154;BMP280;49455;52.252;9.124;2023-04-25T20:17:00;99555.69;;;5.37
49154;BMP280;49455;52.252;9.124;2023-04-25T20:22:01;99559.75;;;5.32
49154;BMP280;49455;52.252;9.124;2023-04-25T20:27:01;99565.94;;;5.18
49154;BMP280;49455;52.252;9.124;2023-04-25T20:32:01;99569.22;;;5.16
49154;BMP280;49455;52.252;9.124;2023-04-25T20:37:02;99573.38;;;5.14
49154;BMP280;49455;52.252;9.124;2023-04-25T20:42:02;99580.59;;;5.22
49154;BMP280;49455;52.252;9.124;2023-04-25T20:47:03;99577.44;;;5.28
49154;BMP280;49455;52.252;9.124;2023-04-25T20:52:04;99581.66;;;5.26
49154;BMP280;49455;52.252;9.124;2023-04-25T20:57:04;99578.19;;;5.25
49154;BMP280;49455;52.252;9.124;2023-04-25T21:02:05;99578.66;;;5.17
49154;BMP280;49455;52.252;9.124;2023-04-25T21:07:05;99579.69;;;5.20
49154;BMP280;49455;52.252;9.124;2023-04-25T21:12:06;99577.41;;;5.09
49154;BMP280;49455;52.252;9.124;2023-04-25T21:17:06;99578.69;;;5.00
49154;BMP280;49455;52.252;9.124;2023-04-25T21:22:07;99581.63;;;4.90
49154;BMP280;49455;52.252;9.124;2023-04-25T21:27:07;99575.81;;;4.75
49154;BMP280;49455;52.252;9.124;2023-04-25T21:32:07;99588.94;;;4.65
49154;BMP280;49455;52.252;9.124;2023-04-25T21:37:08;99589.53;;;4.60
49154;BMP280;49455;52.252;9.124;2023-04-25T21:42:11;99598.03;;;4.59
49154;BMP280;49455;52.252;9.124;2023-04-25T21:47:11;99580.94;;;4.58
49154;BMP280;49455;52.252;9.124;2023-04-25T21:52:12;99589.78;;;4.47
49154;BMP280;49455;52.252;9.124;2023-04-25T21:57:12;99599.53;;;4.38
49154;BMP280;49455;52.252;9.124;2023-04-25T22:02:13;99596.47;;;4.28
49154;BMP280;49455;52.252;9.124;2023-04-25T22:07:14;99601.25;;;4.22
49154;BMP280;49455;52.252;9.124;2023-04-25T22:12:14;99601.78;;;4.15
49154;BMP280;49455;52.252;9.124;2023-04-25T22:17:14;99611.56;;;4.06
49154;BMP280;49455;52.252;9.124;2023-04-25T22:22:15;99613.00;;;4.01
49154;BMP280;49455;52.252;9.124;2023-04-25T22:27:15;99609.78;;;3.90
49154;BMP280;49455;52.252;9.124;2023-04-25T22:32:16;99615.63;;;3.87
49154;BMP280;49455;52.252;9.124;2023-04-25T22:37:16;99611.16;;;3.83
49154;BMP280;49455;52.252;9.124;2023-04-25T22:42:16;99615.31;;;3.81
49154;BMP280;49455;52.252;9.124;2023-04-25T22:47:17;99610.41;;;3.68
49154;BMP280;49455;52.252;9.124;2023-04-25T22:52:17;99620.81;;;3.57
49154;BMP280;49455;52.252;9.124;2023-04-25T22:57:18;99625.94;;;3.57
49154;BMP280;49455;52.252;9.124;2023-04-25T23:02:18;99625.78;;;3.54
49154;BMP280;49455;52.252;9.124;2023-04-25T23:07:19;99632.50;;;3.52
49154;BMP280;49455;52.252;9.124;2023-04-25T23:12:19;99631.38;;;3.47
49154;BMP280;49455;52.252;9.124;2023-04-25T23:17:20;99626.88;;;3.43
49154;BMP280;49455;52.252;9.124;2023-04-25T23:22:20;99628.31;;;3.38
49154;BMP280;49455;52.252;9.124;2023-04-25T23:27:21;99636.06;;;3.40
49154;BMP280;49455;52.252;9.124;2023-04-25T23:32:21;99635.09;;;3.38
49154;BMP280;49455;52.252;9.124;2023-04-25T23:37:22;99644.38;;;3.36
49154;BMP280;49455;52.252;9.124;2023-04-25T23:42:22;99636.63;;;3.34
49154;BMP280;49455;52.252;9.124;2023-04-25T23:47:22;99652.97;;;3.38
49154;BMP280;49455;52.252;9.124;2023-04-25T23:52:23;99643.31;;;3.32
49154;BMP280;49455;52.252;9.124;2023-04-25T23:57:24;99645.81;;;3.31
